Time;durP1;ratioP1;P1;durP2;ratioP2;P2;SDS_P1;SDS_P2;PMS_P1;PMS_P2;Temp;Humidity;BMP_temperature;BMP_pressure;BME280_temperature;BME280_humidity;BME280_pressure;Samples;Min_cycle;Max_cycle;Signal;HPM_P1;HPM_P2
2024/01/28 00:04:12;;;;;;;3.83;1.50;;;;;;;17.50;42.23;103155.72;16134258;19;130340;-80
2024/01/28 00:09:34;;;;;;;3.60;1.50;;;;;;;17.46;42.21;103142.44;16125701;19;129841;-81
2024/01/28 00:14:57;;;;;;;2.85;1.40;;;;;;;17.42;42.61;103135.56;16124351;19;130488;-81
2024/01/28 00:20:19;;;;;;;2.78;1.52;;;;;;;17.37;42.42;103125.91;16122200;19;129390;-81
2024/01/28 00:25:41;;;;;;;3.03;1.50;;;;;;;17.35;42.48;103127.16;16125156;19;131722;-81
2024/01/28 00:31:08;;;;;;;3.00;1.35;;;;;;;17.32;42.44;103127.50;16148940;19;129398;-82
2024/01/28 00:36:31;;;;;;;2.42;1.40;;;;;;;17.26;42.52;103131.00;16201872;19;129003;-82
2024/01/28 00:41:53;;;;;;;3.88;1.27;;;;;;;17.23;42.78;103127.53;16200430;19;128478;-80
2024/01/28 00:47:15;;;;;;;4.32;1.20;;;;;;;17.19;42.26;103117.03;16206673;19;129064;-82
2024/01/28 00:52:37;;;;;;;4.32;1.30;;;;;;;17.16;42.43;103109.97;16176123;19;129215;-81
2024/01/28 00:58:02;;;;;;;3.28;1.40;;;;;;;17.12;42.40;103108.59;16127477;19;129752;-81
2024/01/28 01:03:24;;;;;;;2.17;1.07;;;;;;;17.09;42.43;103114.53;16125252;19;131527;-82
2024/01/28 01:08:46;;;;;;;2.63;1.40;;;;;;;17.05;42.45;103118.69;16123608;19;129598;-82
2024/01/28 01:14:08;;;;;;;2.03;1.15;;;;;;;17.02;42.67;103114.38;16123411;19;131025;-80
2024/01/28 01:19:30;;;;;;;3.72;1.40;;;;;;;17.00;42.45;103110.94;16119637;19;131113;-82
2024/01/28 01:24:52;;;;;;;3.20;1.20;;;;;;;16.97;42.74;103093.84;16128279;19;130468;-82
2024/01/28 01:30:15;;;;;;;1.95;1.10;;;;;;;16.94;42.89;103086.78;16126527;19;130239;-79
2024/01/28 01:35:37;;;;;;;2.90;1.30;;;;;;;16.90;42.40;103083.50;16124078;19;129317;-80
2024/01/28 01:40:59;;;;;;;4.88;1.05;;;;;;;16.88;42.48;103070.91;16117478;19;129881;-80
2024/01/28 01:46:22;;;;;;;3.47;1.30;;;;;;;16.86;42.51;103064.72;16120374;19;129261;-80
2024/01/28 01:51:44;;;;;;;3.40;1.38;;;;;;;16.82;42.56;103047.63;16118395;19;129563;-81
2024/01/28 01:57:06;;;;;;;2.63;1.42;;;;;;;16.79;42.36;103036.09;16122040;19;129796;-80
2024/01/28 02:02:28;;;;;;;2.10;0.95;;;;;;;16.76;42.49;103031.75;16117959;19;129528;-81
2024/01/28 02:07:51;;;;;;;3.25;1.42;;;;;;;16.73;42.22;103027.47;16118324;19;130107;-81
2024/01/28 02:13:12;;;;;;;2.17;1.00;;;;;;;16.72;42.41;103034.03;16119800;19;130225;-81
2024/01/28 02:18:35;;;;;;;1.10;0.80;;;;;;;16.70;42.28;103029.75;16132086;19;130304;-81
2024/01/28 02:23:57;;;;;;;1.67;0.80;;;;;;;16.69;42.09;103036.31;16136968;19;130041;-81
2024/01/28 02:29:19;;;;;;;2.25;0.52;;;;;;;16.68;42.11;103029.06;16135968;19;130303;-80
2024/01/28 02:34:41;;;;;;;1.90;0.60;;;;;;;16.65;42.12;103034.91;16137571;19;129346;-80
2024/01/28 02:40:04;;;;;;;1.40;0.50;;;;;;;16.62;42.17;103020.41;16137923;19;129538;-80
2024/01/28 02:45:26;;;;;;;1.15;0.68;;;;;;;16.58;41.75;103005.25;16134740;19;130933;-81
2024/01/28 02:50:48;;;;;;;1.80;0.50;;;;;;;16.55;41.65;103000.06;16130472;19;130398;-81
2024/01/28 02:56:10;;;;;;;2.13;0.70;;;;;;;16.53;41.32;102988.34;16131670;19;130324;-81
2024/01/28 03:01:32;;;;;;;1.65;0.57;;;;;;;16.50;41.42;102985.09;16128356;19;130222;-81
2024/01/28 03:06:54;;;;;;;1.25;0.90;;;;;;;16.47;41.02;102992.69;16135548;19;129954;-81
2024/01/28 03:12:16;;;;;;;2.22;0.50;;;;;;;16.45;41.25;103005.81;16129960;19;129404;-81
2024/01/28 03:17:38;;;;;;;1.95;0.70;;;;;;;16.42;41.28;102997.03;16130663;19;129911;-81
2024/01/28 03:23:00;;;;;;;2.00;0.80;;;;;;;16.40;41.36;102988.06;16129184;19;129375;-81
2024/01/28 03:28:22;;;;;;;1.98;0.88;;;;;;;16.39;41.30;102989.09;16130426;19;129765;-81
2024/01/28 03:33:46;;;;;;;2.25;0.90;;;;;;;16.37;41.23;102972.72;16131201;19;129541;-81
2024/01/28 03:39:08;;;;;;;1.33;0.77;;;;;;;16.36;40.93;102964.63;16130518;19;130626;-82
2024/01/28 03:44:30;;;;;;;2.10;0.82;;;;;;;16.34;41.04;102966.69;16134300;19;129299;-81
2024/01/28 03:49:52;;;;;;;1.38;0.82;;;;;;;16.31;41.19;102970.66;16130666;19;129880;-81
2024/01/28 03:55:14;;;;;;;1.85;0.80;;;;;;;16.29;41.07;102954.28;16133710;19;131170;-81
2024/01/28 04:00:37;;;;;;;2.75;0.80;;;;;;;16.26;41.11;102960.16;16143740;19;129981;-81
2024/01/28 04:06:01;;;;;;;2.55;1.10;;;;;;;16.26;41.11;102951.88;16152471;19;129549;-81
2024/01/28 04:11:27;;;;;;;2.33;1.13;;;;;;;16.24;41.14;102945.69;16199043;19;129282;-82
2024/01/28 04:16:49;;;;;;;2.20;1.00;;;;;;;16.23;41.61;102954.16;16201486;19;130718;-83
2024/01/28 04:22:11;;;;;;;1.83;0.88;;;;;;;16.21;41.19;102940.53;16170706;19;130665;-82
2024/01/28 04:27:33;;;;;;;1.58;0.85;;;;;;;16.19;41.34;102933.44;16127888;19;130869;-81
2024/01/28 04:32:55;;;;;;;2.47;0.90;;;;;;;16.18;41.40;102924.31;16126123;19;131138;-81
2024/01/28 04:38:18;;;;;;;2.28;1.02;;;;;;;16.15;41.19;102927.44;16122340;19;130075;-82
2024/01/28 04:43:40;;;;;;;1.33;0.73;;;;;;;16.13;41.43;102926.75;16123107;19;130034;-82
2024/01/28 04:49:03;;;;;;;3.17;1.02;;;;;;;16.15;41.36;102924.66;16124396;19;130149;-74
2024/01/28 04:54:25;;;;;;;2.13;0.90;;;;;;;16.21;41.32;102912.03;16121912;19;130327;-75
2024/01/28 04:59:47;;;;;;;6.18;1.00;;;;;;;16.31;41.40;102916.31;16123872;19;132791;-80
2024/01/28 05:05:09;;;;;;;3.42;0.90;;;;;;;16.48;41.54;102913.44;16130803;19;130403;-74
2024/01/28 05:10:31;;;;;;;2.83;0.98;;;;;;;16.70;41.54;102910.91;16127550;19;130147;-76
2024/01/28 05:15:53;;;;;;;2.95;1.00;;;;;;;16.90;41.19;102891.91;16124225;19;129300;-76
2024/01/28 05:21:15;;;;;;;2.33;0.80;;;;;;;17.08;41.12;102883.25;16126577;19;129793;-73
2024/01/28 05:26:37;;;;;;;5.15;1.13;;;;;;;17.21;40.51;102875.19;16120502;19;129778;-75
2024/01/28 05:31:59;;;;;;;4.72;1.20;;;;;;;17.36;40.17;102871.53;16121705;19;129462;-74
2024/01/28 05:37:21;;;;;;;4.47;1.25;;;;;;;17.47;40.37;102862.78;16117461;19;129575;-73
2024/01/28 05:42:43;;;;;;;3.38;1.20;;;;;;;17.59;39.92;102859.56;16119201;19;129234;-72
2024/01/28 05:48:05;;;;;;;2.67;1.40;;;;;;;17.68;39.82;102863.94;16121108;19;129356;-75
2024/01/28 05:53:28;;;;;;;4.88;1.10;;;;;;;17.78;39.38;102858.97;16133568;19;130608;-73
2024/01/28 05:58:50;;;;;;;2.15;0.98;;;;;;;17.87;39.34;102851.41;16136387;19;130312;-79
2024/01/28 06:04:12;;;;;;;3.20;1.13;;;;;;;17.95;39.42;102842.97;16137122;19;129938;-75
2024/01/28 06:09:34;;;;;;;2.13;0.98;;;;;;;18.02;39.56;102843.06;16131457;19;129658;-75
2024/01/28 06:15:02;;;;;;;5.30;1.20;;;;;;;18.07;39.67;102843.34;16129632;19;130059;-74
2024/01/28 06:20:26;;;;;;;4.00;1.30;;;;;;;18.10;39.38;102842.09;16135251;19;129364;-74
2024/01/28 06:25:48;;;;;;;2.60;1.20;;;;;;;18.13;39.21;102844.47;16131708;19;130995;-74
2024/01/28 06:31:14;;;;;;;2.60;1.20;;;;;;;18.14;38.81;102840.66;16132882;19;129707;-74
2024/01/28 06:36:36;;;;;;;5.72;1.73;;;;;;;18.15;39.32;102828.50;16127822;19;129514;-77
2024/01/28 06:41:59;;;;;;;4.03;1.30;;;;;;;18.17;39.40;102825.53;16127380;19;130876;-77
2024/01/28 06:47:21;;;;;;;2.42;1.00;;;;;;;18.17;39.54;102833.84;16128101;19;130615;-75
2024/01/28 06:52:43;;;;;;;5.75;1.48;;;;;;;18.15;39.38;102831.28;16129474;19;130273;-78
2024/01/28 06:58:05;;;;;;;3.78;1.30;;;;;;;18.13;39.30;102831.47;16124244;19;130898;-80
2024/01/28 07:03:27;;;;;;;4.25;1.70;;;;;;;18.07;39.34;102826.72;16126729;19;130565;-78
2024/01/28 07:08:49;;;;;;;3.42;1.20;;;;;;;18.07;39.71;102823.06;15978499;19;2938806;-78
2024/01/28 07:14:11;;;;;;;4.10;1.20;;;;;;;18.10;39.64;102829.06;16130270;19;130377;-77
2024/01/28 07:19:35;;;;;;;3.40;1.20;;;;;;;18.18;39.55;102821.72;16129596;19;130440;-79
2024/01/28 07:24:57;;;;;;;4.97;1.15;;;;;;;18.24;39.19;102823.69;16131717;19;131230;-75
2024/01/28 07:30:19;;;;;;;3.33;1.05;;;;;;;18.31;39.31;102819.09;16135718;19;130021;-77
2024/01/28 07:35:41;;;;;;;14.25;1.70;;;;;;;18.39;39.62;102832.81;16137548;19;129331;-74
2024/01/28 07:41:03;;;;;;;6.28;1.50;;;;;;;18.64;39.58;102818.56;16134329;19;131339;-76
2024/01/28 07:46:25;;;;;;;3.65;1.40;;;;;;;19.10;39.18;102816.31;16131052;19;129810;-79
2024/01/28 07:51:47;;;;;;;4.97;1.15;;;;;;;19.43;38.61;102802.66;16125872;19;130096;-79
2024/01/28 07:57:09;;;;;;;6.80;1.40;;;;;;;19.74;38.30;102804.09;16126897;19;130232;-75
2024/01/28 08:02:31;;;;;;;2.45;1.05;;;;;;;20.20;37.60;102793.34;16130686;19;131557;-78
2024/01/28 08:07:54;;;;;;;8.43;1.58;;;;;;;20.56;36.64;102792.06;16121285;19;129642;-77
2024/01/28 08:13:16;;;;;;;8.32;3.13;;;;;;;20.77;28.89;102792.94;16117109;19;130596;-73
2024/01/28 08:18:39;;;;;;;8.02;1.70;;;;;;;20.32;33.16;102780.53;16121480;19;130174;-79
2024/01/28 08:24:01;;;;;;;5.47;1.80;;;;;;;20.83;32.54;102765.09;16124251;19;130439;-78
2024/01/28 08:29:23;;;;;;;6.25;1.80;;;;;;;21.30;32.09;102752.97;16124200;19;128972;-78
2024/01/28 08:34:46;;;;;;;2.97;1.35;;;;;;;21.57;31.60;102755.69;16119619;19;130472;-78
2024/01/28 08:40:08;;;;;;;4.63;1.25;;;;;;;21.71;31.17;102750.91;16123755;19;130222;-78
2024/01/28 08:45:30;;;;;;;5.75;1.50;;;;;;;21.86;31.30;102758.97;16117134;19;131136;-78
2024/01/28 08:50:52;;;;;;;13.13;2.00;;;;;;;22.08;30.71;102748.31;16116885;19;130592;-77
2024/01/28 08:56:14;;;;;;;10.30;1.92;;;;;;;22.30;30.20;102740.44;16114429;19;129626;-75
2024/01/28 09:01:36;;;;;;;16.02;2.08;;;;;;;22.51;30.25;102735.56;16121241;19;129690;-79
2024/01/28 09:06:58;;;;;;;8.75;1.85;;;;;;;22.31;30.54;102736.56;16118914;19;131370;-74
2024/01/28 09:12:21;;;;;;;13.30;2.05;;;;;;;22.46;31.00;102732.59;16114397;19;130138;-74
2024/01/28 09:17:43;;;;;;;10.05;2.08;;;;;;;22.84;30.91;102728.78;16117094;19;130101;-74
2024/01/28 09:23:05;;;;;;;10.30;1.70;;;;;;;23.24;30.75;102727.47;16120141;19;129484;-73
2024/01/28 09:28:26;;;;;;;14.02;1.85;;;;;;;23.66;30.17;102725.63;16119501;19;129966;-76
2024/01/28 09:33:48;;;;;;;10.75;1.52;;;;;;;24.18;29.14;102714.97;16121835;19;129529;-84
2024/01/28 09:39:11;;;;;;;6.88;1.50;;;;;;;24.73;28.84;102706.22;16120415;19;132461;-77
2024/01/28 09:44:33;;;;;;;10.65;1.90;;;;;;;25.15;28.08;102716.38;16121085;19;129829;-85
2024/01/28 09:49:57;;;;;;;5.45;1.35;;;;;;;25.69;27.23;102712.44;16128664;19;129091;-88
2024/01/28 09:55:22;;;;;;;5.22;1.35;;;;;;;26.21;26.78;102702.16;16119408;19;130253;-72
2024/01/28 10:00:44;;;;;;;17.60;2.30;;;;;;;26.63;26.21;102698.00;16110746;19;130590;-70
2024/01/28 10:06:06;;;;;;;19.48;4.32;;;;;;;26.72;26.25;102688.00;16113786;19;130528;-72
2024/01/28 10:11:28;;;;;;;16.08;3.05;;;;;;;26.61;26.33;102689.81;16117321;19;130192;-71
2024/01/28 10:16:50;;;;;;;16.00;3.08;;;;;;;26.50;26.47;102685.16;16109008;19;130629;-72
2024/01/28 10:22:12;;;;;;;15.07;2.30;;;;;;;26.65;26.60;102692.94;16111004;19;134675;-74
2024/01/28 10:27:35;;;;;;;20.90;2.25;;;;;;;26.92;25.98;102695.91;16108250;19;130286;-73
2024/01/28 10:32:57;;;;;;;12.75;2.20;;;;;;;27.02;25.48;102690.41;16108814;19;129729;-73
2024/01/28 10:38:22;;;;;;;14.55;2.20;;;;;;;27.02;25.61;102689.53;16119807;19;129695;-72
2024/01/28 10:44:07;;;;;;;6.75;2.05;;;;;;;26.69;24.25;102680.97;16131454;19;130228;-73
2024/01/28 10:49:36;;;;;;;10.85;2.55;;;;;;;26.32;24.10;102670.34;16129671;19;130036;-73
2024/01/28 10:55:00;;;;;;;6.25;2.15;;;;;;;25.88;23.57;102665.41;16132564;19;129689;-70
2024/01/28 11:00:22;;;;;;;8.30;1.92;;;;;;;25.38;24.69;102655.75;16131731;19;130067;-71
2024/01/28 11:05:44;;;;;;;8.25;2.03;;;;;;;25.23;25.80;102656.31;16165408;19;129151;-75
2024/01/28 11:11:06;;;;;;;8.10;1.73;;;;;;;25.16;26.41;102650.88;16177790;19;129427;-90
2024/01/28 11:16:30;;;;;;;5.50;1.70;;;;;;;25.18;26.67;102634.69;16140936;19;130284;-85
2024/01/28 11:21:52;;;;;;;6.38;1.40;;;;;;;25.28;26.62;102633.16;16126895;19;130093;-79
2024/01/28 11:27:15;;;;;;;2.58;1.15;;;;;;;25.31;26.64;102621.47;16128392;19;131105;-78
2024/01/28 11:32:37;;;;;;;3.72;1.23;;;;;;;25.49;26.45;102618.44;16131098;19;129716;-80
2024/01/28 11:38:05;;;;;;;6.63;1.20;;;;;;;25.78;26.03;102610.00;16122952;19;131216;-76
2024/01/28 11:43:27;;;;;;;4.15;1.30;;;;;;;26.28;25.49;102596.19;16123823;19;129327;-88
2024/01/28 11:48:49;;;;;;;7.15;1.40;;;;;;;26.54;25.39;102593.75;16125389;19;130887;-73
2024/01/28 11:54:11;;;;;;;5.75;1.40;;;;;;;27.12;25.36;102591.38;16122378;19;131081;-70
2024/01/28 11:59:34;;;;;;;7.50;1.73;;;;;;;27.67;25.21;102576.44;16119307;19;130315;-76
2024/01/28 12:04:56;;;;;;;7.47;1.63;;;;;;;28.07;24.91;102570.28;16122497;19;129941;-75
2024/01/28 12:10:19;;;;;;;6.82;1.35;;;;;;;28.36;24.80;102569.00;16123038;19;130432;-75
2024/01/28 12:15:40;;;;;;;7.65;1.42;;;;;;;28.60;24.57;102558.19;16125687;19;129890;-77
2024/01/28 12:21:03;;;;;;;7.18;1.20;;;;;;;28.79;24.28;102552.03;16121221;19;130065;-76
2024/01/28 12:26:29;;;;;;;3.70;1.20;;;;;;;28.77;24.15;102543.84;16120205;19;131836;-74
2024/01/28 12:31:51;;;;;;;4.68;1.30;;;;;;;28.75;24.22;102548.06;16125566;19;130293;-77
2024/01/28 12:37:13;;;;;;;2.97;1.20;;;;;;;28.48;24.89;102535.84;16127638;19;130590;-84
2024/01/28 12:42:38;;;;;;;3.05;0.95;;;;;;;27.92;25.07;102523.22;16125378;19;129374;-79
2024/01/28 12:48:00;;;;;;;4.78;1.33;;;;;;;27.38;25.88;102517.72;16121233;19;129989;-72
2024/01/28 12:53:22;;;;;;;5.60;1.17;;;;;;;27.10;26.27;102516.88;16111905;19;130694;-69
2024/01/28 12:58:44;;;;;;;12.98;1.70;;;;;;;26.86;26.20;102511.59;16110502;19;130326;-72
2024/01/28 13:04:06;;;;;;;6.13;1.25;;;;;;;26.61;26.47;102515.78;16112021;19;129343;-70
2024/01/28 13:09:28;;;;;;;13.15;2.05;;;;;;;26.49;26.98;102498.25;16112481;19;131271;-75
2024/01/28 13:14:51;;;;;;;9.63;1.25;;;;;;;26.33;26.69;102497.22;16110391;19;130647;-74
2024/01/28 13:20:13;;;;;;;6.18;1.30;;;;;;;26.17;26.61;102482.97;16108354;19;134653;-75
2024/01/28 13:25:35;;;;;;;7.80;1.20;;;;;;;26.01;25.83;102472.66;16113749;19;131096;-76
2024/01/28 13:30:58;;;;;;;4.10;1.60;;;;;;;25.70;24.97;102473.09;16112119;19;129812;-74
2024/01/28 13:36:20;;;;;;;4.47;1.25;;;;;;;25.39;24.55;102466.13;16111259;19;130848;-74
2024/01/28 13:41:42;;;;;;;11.52;1.50;;;;;;;24.98;24.14;102444.72;16105970;19;130589;-73
2024/01/28 13:47:04;;;;;;;4.45;1.80;;;;;;;24.70;23.92;102440.84;16110733;19;131374;-70
2024/01/28 13:52:26;;;;;;;16.60;1.52;;;;;;;24.66;24.07;102430.41;16112296;19;129375;-72
2024/01/28 13:57:48;;;;;;;5.50;1.23;;;;;;;24.67;24.90;102410.56;16108819;19;129955;-69
2024/01/28 14:03:11;;;;;;;5.15;1.50;;;;;;;24.57;25.09;102410.38;16109206;19;131527;-72
2024/01/28 14:08:33;;;;;;;10.98;1.55;;;;;;;24.42;25.30;102408.13;16110898;19;129316;-74
2024/01/28 14:13:55;;;;;;;4.65;1.55;;;;;;;24.32;25.73;102405.97;16121730;19;130403;-72
2024/01/28 14:19:17;;;;;;;16.65;1.65;;;;;;;24.07;25.19;102400.72;16127729;19;130382;-80
2024/01/28 14:24:39;;;;;;;7.35;1.73;;;;;;;23.85;25.08;102404.19;16131272;19;129739;-77
2024/01/28 14:30:01;;;;;;;7.70;1.70;;;;;;;23.58;25.34;102409.38;16132294;19;130950;-76
2024/01/28 14:35:23;;;;;;;5.80;1.23;;;;;;;23.35;25.61;102411.97;16131970;19;129140;-76
2024/01/28 14:40:45;;;;;;;7.03;1.55;;;;;;;23.17;25.95;102406.50;16125807;19;130938;-75
2024/01/28 14:46:07;;;;;;;3.05;1.42;;;;;;;23.03;25.83;102403.91;16131576;19;129435;-76
2024/01/28 14:51:29;;;;;;;7.18;1.58;;;;;;;22.88;26.32;102396.00;16131871;19;129433;-77
2024/01/28 14:56:51;;;;;;;5.00;1.40;;;;;;;22.69;26.24;102386.84;16130114;19;131786;-78
2024/01/28 15:02:13;;;;;;;3.58;1.60;;;;;;;22.50;26.19;102382.44;16129439;19;129287;-76
2024/01/28 15:07:35;;;;;;;3.08;1.40;;;;;;;22.35;26.54;102385.63;16126361;19;129891;-77
2024/01/28 15:12:57;;;;;;;4.82;1.55;;;;;;;22.18;26.63;102382.63;16121184;19;130803;-76
2024/01/28 15:18:19;;;;;;;2.67;1.20;;;;;;;22.00;26.87;102380.72;16124923;19;129305;-73
2024/01/28 15:23:41;;;;;;;8.57;2.05;;;;;;;21.81;26.96;102372.41;16112087;19;129775;-71
2024/01/28 15:29:03;;;;;;;13.40;2.53;;;;;;;21.69;27.75;102383.44;16120841;19;129458;-77
2024/01/28 15:34:26;;;;;;;13.80;1.60;;;;;;;21.53;28.99;102373.78;16127719;19;129989;-71
2024/01/28 15:39:49;;;;;;;9.85;1.45;;;;;;;21.38;29.18;102371.34;16125879;19;129760;-72
2024/01/28 15:45:11;;;;;;;12.57;1.75;;;;;;;21.25;30.14;102363.13;16128900;19;129641;-71
2024/01/28 15:50:33;;;;;;;10.43;2.00;;;;;;;21.11;30.20;102366.03;16134829;19;129427;-70
2024/01/28 15:55:55;;;;;;;5.90;1.60;;;;;;;21.04;30.37;102366.09;16131622;19;129210;-70
2024/01/28 16:01:17;;;;;;;17.73;2.22;;;;;;;20.99;30.57;102367.84;16124827;19;129422;-69
2024/01/28 16:06:40;;;;;;;22.90;2.33;;;;;;;20.91;30.54;102366.22;16117339;19;129271;-69
2024/01/28 16:12:02;;;;;;;14.00;1.70;;;;;;;20.85;31.00;102367.97;16121796;19;129654;-70
2024/01/28 16:17:26;;;;;;;11.27;1.80;;;;;;;20.79;31.09;102379.16;16123857;19;129659;-72
2024/01/28 16:22:48;;;;;;;18.00;2.28;;;;;;;20.77;31.55;102376.59;16125329;19;132405;-70
2024/01/28 16:28:11;;;;;;;196.23;70.15;;;;;;;20.74;32.45;102377.84;16121212;19;130350;-77
2024/01/28 16:33:33;;;;;;;274.70;83.72;;;;;;;20.73;32.90;102375.31;16112792;19;131493;-68
2024/01/28 16:38:55;;;;;;;161.15;50.22;;;;;;;20.73;33.60;102369.75;16111277;19;131461;-68
2024/01/28 16:44:17;;;;;;;145.77;46.72;;;;;;;20.73;34.29;102369.75;16110624;19;130632;-69
2024/01/28 16:49:39;;;;;;;125.13;41.53;;;;;;;20.74;34.45;102371.44;16111271;19;130956;-70
2024/01/28 16:55:01;;;;;;;113.22;38.30;;;;;;;20.75;35.04;102384.28;16111877;19;129618;-69
2024/01/28 17:00:23;;;;;;;130.90;36.28;;;;;;;20.77;35.62;102370.16;16112102;19;130394;-70
2024/01/28 17:05:45;;;;;;;108.05;34.15;;;;;;;20.77;35.57;102376.59;16100859;19;130528;-70
2024/01/28 17:11:08;;;;;;;110.75;33.55;;;;;;;20.75;35.72;102374.03;16102838;19;131316;-72
2024/01/28 17:16:29;;;;;;;87.40;30.40;;;;;;;20.74;35.86;102379.78;16111390;19;131348;-67
2024/01/28 17:21:52;;;;;;;91.15;30.25;;;;;;;20.71;36.71;102369.97;16103160;19;131838;-69
2024/01/28 17:27:14;;;;;;;84.82;28.80;;;;;;;20.66;38.61;102372.56;16104829;19;130123;-66
2024/01/28 17:32:36;;;;;;;78.22;25.88;;;;;;;20.60;37.63;102377.09;16107223;19;130359;-64
2024/01/28 17:37:58;;;;;;;79.03;25.52;;;;;;;20.51;37.61;102374.81;16107352;19;129628;-63
2024/01/28 17:43:20;;;;;;;82.22;24.38;;;;;;;20.42;37.62;102385.38;16105106;19;130173;-64
2024/01/28 17:48:42;;;;;;;81.35;24.50;;;;;;;20.29;37.50;102384.38;16122406;19;129719;-65
2024/01/28 17:54:05;;;;;;;69.45;23.15;;;;;;;20.20;37.27;102376.50;16121528;19;130318;-64
2024/01/28 17:59:27;;;;;;;71.40;21.30;;;;;;;20.12;37.57;102378.44;16124722;19;130287;-67
2024/01/28 18:04:49;;;;;;;70.65;20.55;;;;;;;20.05;37.61;102369.31;16122592;19;131300;-64
2024/01/28 18:10:12;;;;;;;76.32;21.75;;;;;;;19.97;37.33;102369.53;16125446;19;130368;-66
2024/01/28 18:15:34;;;;;;;62.67;19.30;;;;;;;19.90;37.51;102372.34;16120630;19;129826;-67
2024/01/28 18:20:56;;;;;;;61.55;18.33;;;;;;;19.81;37.44;102376.44;16122498;19;129891;-67
2024/01/28 18:26:18;;;;;;;47.55;15.40;;;;;;;19.72;37.21;102359.16;16123312;19;131308;-65
2024/01/28 18:31:42;;;;;;;40.92;15.18;;;;;;;19.61;37.34;102363.47;16125364;19;130493;-66
2024/01/28 18:37:04;;;;;;;40.72;13.63;;;;;;;19.52;37.40;102353.66;16123540;19;129581;-66
2024/01/28 18:42:26;;;;;;;36.08;13.43;;;;;;;19.44;37.16;102362.25;16118421;19;130311;-66
2024/01/28 18:47:48;;;;;;;44.20;13.10;;;;;;;19.37;36.98;102367.78;16119699;19;130277;-66
2024/01/28 18:53:13;;;;;;;37.30;12.32;;;;;;;19.31;37.21;102363.97;16122505;19;130629;-66
2024/01/28 18:58:34;;;;;;;41.77;12.67;;;;;;;19.24;37.42;102365.03;16126922;19;129581;-65
2024/01/28 19:03:57;;;;;;;35.20;10.52;;;;;;;19.19;37.82;102368.44;16133155;19;129572;-66
2024/01/28 19:09:19;;;;;;;38.13;12.27;;;;;;;19.15;38.07;102372.69;16133231;19;129604;-65
2024/01/28 19:14:42;;;;;;;34.60;10.90;;;;;;;19.11;38.13;102369.50;16137917;19;132010;-66
2024/01/28 19:20:04;;;;;;;26.60;9.23;;;;;;;19.06;38.19;102378.47;16140769;19;131456;-66
2024/01/28 19:25:26;;;;;;;28.35;10.38;;;;;;;19.02;38.50;102377.19;16137578;19;129740;-66
2024/01/28 19:30:48;;;;;;;27.63;9.48;;;;;;;18.98;38.47;102375.06;16140634;19;129516;-66
2024/01/28 19:36:11;;;;;;;30.17;8.38;;;;;;;18.93;38.55;102367.38;16138166;19;129947;-67
2024/01/28 19:41:32;;;;;;;26.98;8.38;;;;;;;18.88;38.55;102364.38;16139710;19;133441;-66
2024/01/28 19:46:55;;;;;;;29.17;8.95;;;;;;;18.85;38.59;102364.78;16134111;19;132997;-67
2024/01/28 19:52:18;;;;;;;24.73;8.57;;;;;;;18.80;38.81;102367.38;16137316;19;129493;-66
2024/01/28 19:57:39;;;;;;;23.88;7.47;;;;;;;18.77;38.52;102380.59;16136369;19;130241;-66
2024/01/28 20:03:02;;;;;;;24.30;7.43;;;;;;;18.75;38.82;102376.31;16128207;19;131183;-67
2024/01/28 20:08:24;;;;;;;22.25;7.03;;;;;;;18.72;38.66;102380.34;16130178;19;129970;-67
2024/01/28 20:13:46;;;;;;;23.45;7.07;;;;;;;18.71;38.85;102380.56;16132423;19;130481;-67
2024/01/28 20:19:08;;;;;;;16.20;6.68;;;;;;;18.68;38.83;102381.88;16145401;19;135686;-67
2024/01/28 20:24:30;;;;;;;19.05;5.90;;;;;;;18.67;38.96;102384.81;16176282;19;129302;-66
2024/01/28 20:29:53;;;;;;;17.02;6.05;;;;;;;18.65;39.00;102385.03;16172875;19;129820;-67
2024/01/28 20:35:15;;;;;;;21.98;5.95;;;;;;;18.64;39.47;102388.88;16169669;19;130460;-67
2024/01/28 20:40:37;;;;;;;20.70;6.00;;;;;;;18.62;39.69;102382.69;16176360;19;128808;-67
2024/01/28 20:45:59;;;;;;;15.48;4.65;;;;;;;18.58;39.43;102373.94;16174875;19;133152;-67
2024/01/28 20:51:22;;;;;;;17.80;5.38;;;;;;;18.56;39.65;102378.00;16187489;19;128826;-67
2024/01/28 20:56:44;;;;;;;14.18;4.70;;;;;;;18.54;39.80;102385.66;16178470;19;129392;-66
2024/01/28 21:02:06;;;;;;;14.10;5.00;;;;;;;18.50;39.76;102385.25;16175831;19;131362;-64
2024/01/28 21:07:36;;;;;;;17.30;5.38;;;;;;;18.47;39.85;102382.88;16178941;19;130794;-67
2024/01/28 21:12:58;;;;;;;13.20;4.53;;;;;;;18.43;39.83;102374.16;16180369;19;129287;-68
2024/01/28 21:18:20;;;;;;;13.15;4.30;;;;;;;18.40;40.00;102365.41;16167974;19;128845;-69
2024/01/28 21:23:43;;;;;;;15.77;4.50;;;;;;;18.37;39.73;102363.00;16161793;19;130876;-65
2024/01/28 21:29:05;;;;;;;12.57;3.88;;;;;;;18.32;40.05;102366.41;16163011;19;129895;-66
2024/01/28 21:34:29;;;;;;;10.23;3.83;;;;;;;18.29;39.80;102369.59;16128246;19;129976;-65
2024/01/28 21:39:51;;;;;;;9.63;3.35;;;;;;;18.24;39.58;102367.44;16122392;19;130210;-65
2024/01/28 21:45:14;;;;;;;8.93;3.35;;;;;;;18.21;39.60;102369.78;16119898;19;130264;-66
2024/01/28 21:50:36;;;;;;;10.50;3.60;;;;;;;18.18;39.72;102359.13;16123934;19;129330;-66
2024/01/28 21:56:00;;;;;;;9.70;3.08;;;;;;;18.13;39.94;102368.06;16123218;19;131393;-66
2024/01/28 22:01:22;;;;;;;14.05;3.25;;;;;;;18.12;39.77;102377.44;16122562;19;129077;-65
2024/01/28 22:06:44;;;;;;;8.18;2.75;;;;;;;18.07;39.94;102372.50;16122608;19;129595;-65
2024/01/28 22:12:06;;;;;;;9.75;2.90;;;;;;;18.05;39.80;102374.63;16116801;19;130383;-65
2024/01/28 22:17:28;;;;;;;8.45;2.70;;;;;;;18.00;39.63;102363.31;16117235;19;130228;-66
2024/01/28 22:22:50;;;;;;;6.90;2.25;;;;;;;17.97;39.69;102369.28;16118194;19;129556;-66
2024/01/28 22:28:12;;;;;;;7.22;3.17;;;;;;;17.95;39.82;102374.16;16111467;19;130078;-66
2024/01/28 22:33:34;;;;;;;7.40;2.45;;;;;;;17.91;39.76;102372.84;16123570;19;129153;-66
2024/01/28 22:38:56;;;;;;;6.90;2.42;;;;;;;17.88;39.69;102387.09;16122650;19;130532;-67
2024/01/28 22:44:18;;;;;;;4.82;2.55;;;;;;;17.84;39.56;102390.31;16128243;19;129069;-66
2024/01/28 22:49:40;;;;;;;4.22;1.83;;;;;;;17.81;39.44;102385.19;16129322;19;130629;-66
2024/01/28 22:55:02;;;;;;;9.18;2.35;;;;;;;17.78;39.92;102388.34;16123647;19;130602;-66
2024/01/28 23:00:32;;;;;;;6.90;2.17;;;;;;;17.75;39.49;102388.75;16124442;19;130458;-66
2024/01/28 23:05:55;;;;;;;4.75;2.03;;;;;;;17.73;39.53;102385.31;16123566;19;129483;-66
2024/01/28 23:11:17;;;;;;;8.77;1.98;;;;;;;17.72;39.57;102382.78;16123306;19;131532;-66
2024/01/28 23:16:39;;;;;;;4.40;2.35;;;;;;;17.69;39.62;102375.75;16122299;19;129638;-66
2024/01/28 23:22:01;;;;;;;5.05;1.80;;;;;;;17.66;39.73;102374.22;16120593;19;129586;-67
2024/01/28 23:27:23;;;;;;;4.75;2.00;;;;;;;17.63;39.64;102380.19;16122333;19;130290;-66
2024/01/28 23:32:45;;;;;;;5.10;2.00;;;;;;;17.60;39.69;102386.13;16118824;19;130343;-66
2024/01/28 23:38:08;;;;;;;3.72;1.75;;;;;;;17.58;39.73;102376.31;16121413;19;131407;-66
2024/01/28 23:43:30;;;;;;;2.60;1.20;;;;;;;17.56;39.57;102383.97;16121291;19;129653;-66
2024/01/28 23:48:52;;;;;;;4.10;1.58;;;;;;;17.53;39.73;102380.50;16116433;19;130284;-66
2024/01/28 23:54:14;;;;;;;3.28;1.52;;;;;;;17.50;39.60;102389.22;16105861;19;130613;-66
2024/01/28 23:59:36;;;;;;;4.50;1.70;;;;;;;17.48;39.79;102388.56;16118973;19;129754;-66
